Terminal Aerodrome Forecast
Issued by NWS Tampa Bay Area, FL

Home | Current Version | Previous Version | Text Only | Print | Product List | Glossary On
Versions: 1 2 3 4 5 6 7 8 9 10 11 12 13 14 15 16 17 18 19 20 21 22 23 24
000
FTUS42 KTBW 221100
TAFTPA
TAF
KTPA 221136Z 2212/2312 VRB04KT P6SM FEW020 SCT250
     FM221500 24005KT P6SM SCT035 BKN250
     FM221700 27007KT P6SM VCTS SCT040CB SCT100 BKN250
     FM230100 VRB03KT P6SM SCT035 BKN150=

USA.gov is the U.S. government's official web portal to all federal, state and local government web resources and services.